createdAt,value
2018-04-30T00:00:42.549Z,0.00
2018-04-30T00:01:37.705Z,0.00
2018-04-30T00:02:37.588Z,0.00
2018-04-30T00:03:37.418Z,0.00
2018-04-30T00:04:37.338Z,0.00
2018-04-30T00:05:37.484Z,0.00
2018-04-30T00:06:37.434Z,0.00
2018-04-30T00:07:37.171Z,0.00
2018-04-30T00:08:37.161Z,0.00
2018-04-30T00:09:37.636Z,0.00
2018-04-30T00:10:37.164Z,0.00
2018-04-30T00:11:37.075Z,0.00
2018-04-30T00:12:37.020Z,0.00
2018-04-30T00:13:37.020Z,0.00
2018-04-30T00:14:36.903Z,0.00
2018-04-30T00:15:36.881Z,0.00
2018-04-30T00:16:36.881Z,0.00
2018-04-30T00:17:36.831Z,0.00
2018-04-30T00:18:36.866Z,0.00
2018-04-30T00:19:36.808Z,0.00
2018-04-30T00:20:36.728Z,0.00
2018-04-30T00:21:36.678Z,0.00
2018-04-30T00:22:36.649Z,0.00
2018-04-30T00:23:36.697Z,0.00
2018-04-30T00:24:36.607Z,0.00
2018-04-30T00:25:36.513Z,0.00
2018-04-30T00:26:36.492Z,0.00
2018-04-30T00:27:36.448Z,0.00
2018-04-30T00:28:36.490Z,0.00
2018-04-30T00:29:36.416Z,0.00
2018-04-30T00:30:36.415Z,0.00
2018-04-30T00:31:36.506Z,0.00
2018-04-30T00:32:36.323Z,0.00
2018-04-30T00:33:36.714Z,0.00
2018-04-30T00:34:36.300Z,0.00
2018-04-30T00:35:36.159Z,0.00
2018-04-30T00:36:36.206Z,0.00
2018-04-30T00:37:36.157Z,0.00
2018-04-30T00:38:36.137Z,0.00
2018-04-30T00:39:36.025Z,0.00
2018-04-30T00:40:36.087Z,0.00
2018-04-30T00:41:35.926Z,0.00
2018-04-30T00:42:35.918Z,0.00
2018-04-30T00:43:36.033Z,0.00
2018-04-30T00:44:35.877Z,0.00
2018-04-30T00:45:35.855Z,0.00
2018-04-30T00:46:35.816Z,0.00
2018-04-30T00:47:35.886Z,0.00
2018-04-30T00:48:35.761Z,0.00
2018-04-30T00:49:35.655Z,0.00
2018-04-30T00:50:35.704Z,0.00
2018-04-30T00:51:35.648Z,0.00
2018-04-30T00:52:35.626Z,0.00
2018-04-30T00:53:35.597Z,0.00
2018-04-30T00:54:35.541Z,0.00
2018-04-30T00:55:35.500Z,0.00
2018-04-30T00:56:35.399Z,0.00
2018-04-30T00:57:35.458Z,0.00
2018-04-30T00:58:35.420Z,0.00
2018-04-30T00:59:35.403Z,0.00
2018-04-30T01:00:35.451Z,0.00
2018-04-30T01:01:35.176Z,0.00
2018-04-30T01:02:35.162Z,0.00
2018-04-30T01:03:35.362Z,0.00
2018-04-30T01:04:35.142Z,0.00
2018-04-30T01:05:35.215Z,0.00
2018-04-30T01:06:35.250Z,0.00
2018-04-30T01:07:35.339Z,0.00
2018-04-30T01:08:35.389Z,0.00
2018-04-30T01:09:35.098Z,0.00
2018-04-30T01:10:34.964Z,0.00
2018-04-30T01:11:34.901Z,0.00
2018-04-30T01:12:34.926Z,0.00
2018-04-30T01:13:34.929Z,0.00
2018-04-30T01:14:34.903Z,0.00
2018-04-30T01:15:34.866Z,0.00
2018-04-30T01:16:34.683Z,0.00
2018-04-30T01:17:34.610Z,0.00
2018-04-30T01:18:34.702Z,0.00
2018-04-30T01:19:34.587Z,0.00
2018-04-30T01:20:34.668Z,0.00
2018-04-30T01:21:35.169Z,0.00
2018-04-30T01:22:34.556Z,0.00
2018-04-30T01:23:34.543Z,0.00
2018-04-30T01:24:34.421Z,0.00
2018-04-30T01:25:34.482Z,0.00
2018-04-30T01:26:34.463Z,0.00
2018-04-30T01:27:34.381Z,0.00
2018-04-30T01:28:34.220Z,0.00
2018-04-30T01:29:34.170Z,0.00
2018-04-30T01:30:34.120Z,0.00
2018-04-30T01:31:34.106Z,0.00
2018-04-30T01:32:34.058Z,0.00
2018-04-30T01:33:34.100Z,0.00
2018-04-30T01:34:34.035Z,0.00
2018-04-30T01:35:33.930Z,0.00
2018-04-30T01:36:33.983Z,0.00
2018-04-30T01:37:33.939Z,0.00
2018-04-30T01:38:33.892Z,0.00
2018-04-30T01:39:33.847Z,0.00
2018-04-30T01:40:33.779Z,0.00
2018-04-30T01:41:33.819Z,0.00
2018-04-30T01:42:33.718Z,0.00
2018-04-30T01:43:33.703Z,0.00
2018-04-30T01:44:33.650Z,0.00
2018-04-30T01:45:33.625Z,0.00
2018-04-30T01:46:33.579Z,0.00
2018-04-30T01:47:33.489Z,0.00
2018-04-30T01:48:33.533Z,0.00
2018-04-30T01:49:33.574Z,0.00
2018-04-30T01:50:33.621Z,0.00
2018-04-30T01:51:33.612Z,0.00
2018-04-30T01:52:33.444Z,0.00
2018-04-30T01:53:33.360Z,0.00
2018-04-30T01:54:33.397Z,0.00
2018-04-30T01:55:34.397Z,0.00
2018-04-30T01:56:33.216Z,0.00
2018-04-30T01:57:33.230Z,0.00
2018-04-30T01:58:33.178Z,0.00
2018-04-30T01:59:33.069Z,0.00
2018-04-30T02:00:33.030Z,0.00
2018-04-30T02:01:32.990Z,0.00
2018-04-30T02:02:32.961Z,0.00
2018-04-30T02:03:32.949Z,0.00
2018-04-30T02:04:32.919Z,0.00
2018-04-30T02:05:32.935Z,0.00
2018-04-30T02:06:32.844Z,0.00
2018-04-30T02:07:32.793Z,0.00
2018-04-30T02:08:32.758Z,0.00
2018-04-30T02:09:32.675Z,0.00
2018-04-30T02:10:32.679Z,0.00
2018-04-30T02:11:32.600Z,0.00
2018-04-30T02:12:32.594Z,0.00
2018-04-30T02:13:32.562Z,0.00
2018-04-30T02:14:32.475Z,0.00
2018-04-30T02:15:32.463Z,0.00
2018-04-30T02:16:32.454Z,0.00
2018-04-30T02:17:32.506Z,0.00
2018-04-30T02:18:32.358Z,0.00
2018-04-30T02:19:32.377Z,0.00
2018-04-30T02:20:32.287Z,0.00
2018-04-30T02:21:32.289Z,0.00
2018-04-30T02:22:32.212Z,0.00
2018-04-30T02:23:32.172Z,0.00
2018-04-30T02:24:32.165Z,0.00
2018-04-30T02:25:32.215Z,0.00
2018-04-30T02:26:32.089Z,0.00
2018-04-30T02:27:32.033Z,0.00
2018-04-30T02:28:31.969Z,0.00
2018-04-30T02:29:31.915Z,0.00
2018-04-30T02:30:31.942Z,0.00
2018-04-30T02:31:31.906Z,0.00
2018-04-30T02:32:31.819Z,0.00
2018-04-30T02:33:31.925Z,0.00
2018-04-30T02:34:31.755Z,0.00
2018-04-30T02:35:31.728Z,0.00
2018-04-30T02:36:31.732Z,0.00
2018-04-30T02:37:31.643Z,0.00
2018-04-30T02:38:31.586Z,0.00
2018-04-30T02:39:31.522Z,0.00
2018-04-30T02:40:31.549Z,0.00
2018-04-30T02:41:31.457Z,0.00
2018-04-30T02:42:31.425Z,0.00
2018-04-30T02:43:31.392Z,0.00
2018-04-30T02:44:31.383Z,0.00
2018-04-30T02:45:31.341Z,0.00
2018-04-30T02:46:31.341Z,0.00
2018-04-30T02:47:31.219Z,0.00
2018-04-30T02:48:31.208Z,0.00
2018-04-30T02:49:31.165Z,0.00
2018-04-30T02:50:31.153Z,0.00
2018-04-30T02:51:31.070Z,0.00
2018-04-30T02:52:31.020Z,0.00
2018-04-30T02:53:31.026Z,0.00
2018-04-30T02:54:31.011Z,0.00
2018-04-30T02:55:30.931Z,0.00
2018-04-30T02:56:30.887Z,0.00
2018-04-30T02:57:30.974Z,0.00
2018-04-30T02:58:30.857Z,0.00
2018-04-30T02:59:30.817Z,0.00
2018-04-30T03:00:32.271Z,0.00
2018-04-30T03:01:30.733Z,0.00
2018-04-30T03:02:30.680Z,0.00
2018-04-30T03:03:30.615Z,0.00
2018-04-30T03:04:30.575Z,0.00
2018-04-30T03:05:30.616Z,0.00
2018-04-30T03:06:30.542Z,0.00
2018-04-30T03:07:30.454Z,0.00
2018-04-30T03:08:30.442Z,0.00
2018-04-30T03:09:30.428Z,0.00
2018-04-30T03:10:30.356Z,0.00
2018-04-30T03:11:30.356Z,0.00
2018-04-30T03:12:30.338Z,0.00
2018-04-30T03:13:30.227Z,0.00
2018-04-30T03:14:30.284Z,0.00
2018-04-30T03:15:30.183Z,0.00
2018-04-30T03:16:30.214Z,0.00
2018-04-30T03:17:30.166Z,0.00
2018-04-30T03:18:30.061Z,0.00
2018-04-30T03:19:30.034Z,0.00
2018-04-30T03:20:29.996Z,0.00
2018-04-30T03:21:29.966Z,0.00
2018-04-30T03:22:29.903Z,0.00
2018-04-30T03:23:29.850Z,0.00
2018-04-30T03:24:29.866Z,0.00
2018-04-30T03:25:29.813Z,0.00
2018-04-30T03:26:29.772Z,0.00
2018-04-30T03:27:29.709Z,0.00
2018-04-30T03:28:29.686Z,0.00
2018-04-30T03:29:29.609Z,0.00
2018-04-30T03:30:29.572Z,0.00
2018-04-30T03:31:29.542Z,0.00
2018-04-30T03:32:29.547Z,0.00
2018-04-30T03:33:29.491Z,0.00
2018-04-30T03:34:29.453Z,0.00
2018-04-30T03:35:29.368Z,5.63
2018-04-30T03:36:29.356Z,5.63
2018-04-30T03:37:29.309Z,5.63
2018-04-30T03:38:29.271Z,5.63
2018-04-30T03:39:30.208Z,5.63
2018-04-30T03:40:29.197Z,11.25
2018-04-30T03:41:29.184Z,11.25
2018-04-30T03:42:29.127Z,11.25
2018-04-30T03:43:29.087Z,11.25
2018-04-30T03:44:29.086Z,16.88
2018-04-30T03:45:29.075Z,16.88
2018-04-30T03:46:28.976Z,16.88
2018-04-30T03:47:28.919Z,22.50
2018-04-30T03:48:28.880Z,22.50
2018-04-30T03:49:28.908Z,28.13
2018-04-30T03:50:28.815Z,28.13
2018-04-30T03:51:28.770Z,33.75
2018-04-30T03:52:28.716Z,33.75
2018-04-30T03:53:28.702Z,39.38
2018-04-30T03:54:28.691Z,39.38
2018-04-30T03:55:28.612Z,45.00
2018-04-30T03:56:28.583Z,45.00
2018-04-30T03:57:28.576Z,50.63
2018-04-30T03:58:30.283Z,56.25
2018-04-30T03:59:28.530Z,56.25
2018-04-30T04:00:28.419Z,61.88
2018-04-30T04:01:28.424Z,67.50
2018-04-30T04:02:28.345Z,73.13
2018-04-30T04:03:28.446Z,78.75
2018-04-30T04:04:28.281Z,78.75
2018-04-30T04:05:28.290Z,84.38
2018-04-30T04:06:28.219Z,90.00
2018-04-30T04:07:28.176Z,95.63
2018-04-30T04:08:28.129Z,101.25
2018-04-30T04:09:28.094Z,106.88
2018-04-30T04:10:28.285Z,112.50
2018-04-30T04:11:28.074Z,118.13
2018-04-30T04:12:27.991Z,118.13
2018-04-30T04:13:27.932Z,123.75
2018-04-30T04:14:27.905Z,129.38
2018-04-30T04:15:27.872Z,135.00
2018-04-30T04:16:27.902Z,140.63
2018-04-30T04:17:27.806Z,151.88
2018-04-30T04:18:27.767Z,151.88
2018-04-30T04:19:27.724Z,157.50
2018-04-30T04:20:27.696Z,163.13
2018-04-30T04:21:27.634Z,168.75
2018-04-30T04:22:27.592Z,174.38
2018-04-30T04:23:27.553Z,180.00
2018-04-30T04:24:27.609Z,185.63
2018-04-30T04:25:27.497Z,191.25
2018-04-30T04:26:27.431Z,196.88
2018-04-30T04:27:27.407Z,202.50
2018-04-30T04:28:27.384Z,208.13
2018-04-30T04:29:27.333Z,213.75
2018-04-30T04:30:27.304Z,213.75
2018-04-30T04:31:27.269Z,219.38
2018-04-30T04:32:27.293Z,225.00
2018-04-30T04:33:27.268Z,230.63
2018-04-30T04:34:27.162Z,236.25
2018-04-30T04:35:27.135Z,247.50
2018-04-30T04:36:27.088Z,253.13
2018-04-30T04:37:27.045Z,253.13
2018-04-30T04:38:27.009Z,258.75
2018-04-30T04:39:26.982Z,270.00
2018-04-30T04:40:26.968Z,286.88
2018-04-30T04:41:26.923Z,286.88
2018-04-30T04:42:26.919Z,286.88
2018-04-30T04:43:26.963Z,292.50
2018-04-30T04:44:26.915Z,298.13
2018-04-30T04:45:27.416Z,309.38
2018-04-30T04:46:26.864Z,303.75
2018-04-30T04:47:26.716Z,320.63
2018-04-30T04:48:26.660Z,331.88
2018-04-30T04:49:26.674Z,337.50
2018-04-30T04:50:26.575Z,337.50
2018-04-30T04:51:26.602Z,343.13
2018-04-30T04:52:26.587Z,348.75
2018-04-30T04:53:26.473Z,360.00
2018-04-30T04:54:29.420Z,371.25
2018-04-30T04:55:26.456Z,382.50
2018-04-30T04:56:26.387Z,388.13
2018-04-30T04:57:26.478Z,433.13
2018-04-30T04:58:26.462Z,483.75
2018-04-30T04:59:26.296Z,461.25
2018-04-30T05:00:26.213Z,455.63
2018-04-30T05:01:26.220Z,478.13
2018-04-30T05:02:26.378Z,534.38
2018-04-30T05:03:26.143Z,562.50
2018-04-30T05:04:26.217Z,624.38
2018-04-30T05:05:26.080Z,675.00
2018-04-30T05:06:26.065Z,781.88
2018-04-30T05:07:26.055Z,843.75
2018-04-30T05:08:26.020Z,894.38
2018-04-30T05:09:25.906Z,855.00
2018-04-30T05:10:25.882Z,832.50
2018-04-30T05:11:25.912Z,815.63
2018-04-30T05:12:25.950Z,877.50
2018-04-30T05:13:25.953Z,905.63
2018-04-30T05:14:25.734Z,877.50
2018-04-30T05:15:25.729Z,832.50
2018-04-30T05:16:25.731Z,759.38
2018-04-30T05:17:25.658Z,765.00
2018-04-30T05:18:25.634Z,770.63
2018-04-30T05:19:25.615Z,793.13
2018-04-30T05:20:25.648Z,798.75
2018-04-30T05:21:25.583Z,815.63
2018-04-30T05:22:25.527Z,832.50
2018-04-30T05:23:25.551Z,804.38
2018-04-30T05:24:25.408Z,793.13
2018-04-30T05:25:25.362Z,793.13
2018-04-30T05:26:25.382Z,781.88
2018-04-30T05:27:25.357Z,781.88
2018-04-30T05:28:25.337Z,787.50
2018-04-30T05:29:25.263Z,787.50
2018-04-30T05:30:25.199Z,787.50
2018-04-30T05:31:25.237Z,787.50
2018-04-30T05:32:25.189Z,787.50
2018-04-30T05:33:25.127Z,787.50
2018-04-30T05:34:25.095Z,781.88
2018-04-30T05:35:25.041Z,781.88
2018-04-30T05:36:25.051Z,793.13
2018-04-30T05:37:24.987Z,810.00
2018-04-30T05:38:24.986Z,821.25
2018-04-30T05:39:24.927Z,821.25
2018-04-30T05:40:24.969Z,804.38
2018-04-30T05:41:24.860Z,815.63
2018-04-30T05:42:24.827Z,826.88
2018-04-30T05:43:24.885Z,832.50
2018-04-30T05:44:24.751Z,838.13
2018-04-30T05:45:24.847Z,855.00
2018-04-30T05:46:24.705Z,877.50
2018-04-30T05:47:24.705Z,877.50
2018-04-30T05:48:24.629Z,871.88
2018-04-30T05:49:24.589Z,855.00
2018-04-30T05:50:24.578Z,855.00
2018-04-30T05:51:24.520Z,849.38
2018-04-30T05:52:24.512Z,860.63
2018-04-30T05:53:24.453Z,843.75
2018-04-30T05:54:24.429Z,832.50
2018-04-30T05:55:24.439Z,866.25
2018-04-30T05:56:24.375Z,871.88
2018-04-30T05:57:24.369Z,871.88
2018-04-30T05:58:24.304Z,866.25
2018-04-30T05:59:24.278Z,877.50
2018-04-30T06:00:24.300Z,877.50
2018-04-30T06:01:24.214Z,877.50
2018-04-30T06:02:24.162Z,883.13
2018-04-30T06:03:24.248Z,905.63
2018-04-30T06:04:24.121Z,928.13
2018-04-30T06:05:24.110Z,945.00
2018-04-30T06:06:24.079Z,967.50
2018-04-30T06:07:24.022Z,1001.25
2018-04-30T06:08:24.026Z,990.00
2018-04-30T06:09:23.982Z,990.00
2018-04-30T06:10:23.958Z,990.00
2018-04-30T06:11:23.898Z,978.75
2018-04-30T06:12:23.886Z,967.50
2018-04-30T06:13:23.842Z,967.50
2018-04-30T06:14:23.797Z,950.63
2018-04-30T06:15:23.782Z,950.63
2018-04-30T06:16:23.755Z,945.00
2018-04-30T06:17:23.706Z,883.13
2018-04-30T06:18:23.667Z,866.25
2018-04-30T06:19:23.660Z,871.88
2018-04-30T06:20:23.627Z,871.88
2018-04-30T06:21:23.603Z,950.63
2018-04-30T06:22:23.546Z,1068.75
2018-04-30T06:23:23.521Z,1085.63
2018-04-30T06:24:23.512Z,1057.50
2018-04-30T06:25:23.452Z,967.50
2018-04-30T06:26:23.442Z,922.50
2018-04-30T06:27:23.405Z,939.38
2018-04-30T06:28:23.460Z,1012.50
2018-04-30T06:29:23.318Z,1051.88
2018-04-30T06:30:23.304Z,1068.75
2018-04-30T06:31:23.273Z,1068.75
2018-04-30T06:32:23.248Z,1029.38
2018-04-30T06:33:23.223Z,1063.13
2018-04-30T06:34:23.163Z,1096.88
2018-04-30T06:35:23.165Z,1085.63
2018-04-30T06:36:23.116Z,1074.38
2018-04-30T06:37:23.076Z,1040.63
2018-04-30T06:38:23.085Z,1001.25
2018-04-30T06:39:23.018Z,1029.38
2018-04-30T06:40:22.978Z,1085.63
2018-04-30T06:41:22.977Z,1113.75
2018-04-30T06:42:22.944Z,1220.63
2018-04-30T06:43:22.925Z,1338.75
2018-04-30T06:44:22.862Z,1310.63
2018-04-30T06:45:22.829Z,1327.50
2018-04-30T06:46:22.821Z,1395.00
2018-04-30T06:47:22.802Z,1456.88
2018-04-30T06:48:22.732Z,1580.63
2018-04-30T06:49:22.711Z,1563.75
2018-04-30T06:50:22.710Z,1552.50
2018-04-30T06:51:22.654Z,3166.88
2018-04-30T06:52:22.626Z,3465.00
2018-04-30T06:53:22.600Z,1760.63
2018-04-30T06:54:22.545Z,1918.13
2018-04-30T06:55:22.511Z,2053.13
2018-04-30T06:56:22.491Z,1738.13
2018-04-30T06:57:22.452Z,1434.38
2018-04-30T06:58:22.567Z,1440.00
2018-04-30T06:59:22.392Z,1434.38
2018-04-30T07:00:22.491Z,1400.63
2018-04-30T07:01:22.325Z,1473.75
2018-04-30T07:02:22.305Z,1614.38
2018-04-30T07:03:22.262Z,1687.50
2018-04-30T07:04:22.256Z,1676.25
2018-04-30T07:05:22.220Z,1912.50
2018-04-30T07:06:22.283Z,2081.25
2018-04-30T07:07:22.180Z,2514.38
2018-04-30T07:08:22.126Z,2345.63
2018-04-30T07:09:22.358Z,1946.25
2018-04-30T07:10:22.090Z,1665.00
2018-04-30T07:11:22.270Z,1665.00
2018-04-30T07:12:21.993Z,1890.00
2018-04-30T07:13:21.981Z,1901.25
2018-04-30T07:14:21.945Z,1963.13
2018-04-30T07:15:21.930Z,2041.88
2018-04-30T07:16:21.906Z,2036.25
2018-04-30T07:17:21.845Z,1912.50
2018-04-30T07:18:21.830Z,1760.63
2018-04-30T07:19:21.821Z,1676.25
2018-04-30T07:20:21.751Z,1822.50
2018-04-30T07:21:21.758Z,1755.00
2018-04-30T07:22:21.708Z,1822.50
2018-04-30T07:23:21.685Z,1648.13
2018-04-30T07:24:21.663Z,1614.38
2018-04-30T07:25:21.624Z,1631.25
2018-04-30T07:26:21.594Z,1738.13
2018-04-30T07:27:21.697Z,1783.13
2018-04-30T07:28:21.536Z,1732.50
2018-04-30T07:29:22.179Z,1867.50
2018-04-30T07:30:21.496Z,2041.88
2018-04-30T07:31:21.459Z,1996.88
2018-04-30T07:32:21.499Z,2126.25
2018-04-30T07:33:21.534Z,2508.75
2018-04-30T07:34:21.355Z,2137.50
2018-04-30T07:35:21.341Z,2401.88
2018-04-30T07:36:21.330Z,2593.13
2018-04-30T07:37:21.497Z,2013.75
2018-04-30T07:38:21.566Z,2070.00
2018-04-30T07:39:21.247Z,2216.25
2018-04-30T07:40:21.373Z,2103.75
2018-04-30T07:41:21.144Z,2013.75
2018-04-30T07:42:21.179Z,1912.50
2018-04-30T07:43:21.073Z,1951.88
2018-04-30T07:44:21.050Z,1833.75
2018-04-30T07:45:21.084Z,1884.38
2018-04-30T07:46:21.143Z,1906.88
2018-04-30T07:47:22.034Z,2041.88
2018-04-30T07:48:20.934Z,2143.13
2018-04-30T07:49:20.961Z,2013.75
2018-04-30T07:50:20.905Z,2030.63
2018-04-30T07:51:20.854Z,1968.75
2018-04-30T07:52:20.821Z,1968.75
2018-04-30T07:53:20.828Z,1918.13
2018-04-30T07:54:20.858Z,1968.75
2018-04-30T07:55:20.737Z,1991.25
2018-04-30T07:56:20.703Z,2081.25
2018-04-30T07:57:20.683Z,2514.38
2018-04-30T07:58:20.696Z,2075.63
2018-04-30T07:59:20.660Z,1951.88
2018-04-30T08:00:20.621Z,1665.00
2018-04-30T08:01:20.618Z,1580.63
2018-04-30T08:02:20.581Z,1794.38
2018-04-30T08:03:20.536Z,1698.75
2018-04-30T08:04:20.574Z,1805.63
2018-04-30T08:05:21.280Z,2210.63
2018-04-30T08:06:20.419Z,2233.13
2018-04-30T08:07:20.548Z,2233.13
2018-04-30T08:08:20.351Z,2109.38
2018-04-30T08:09:20.384Z,2036.25
2018-04-30T08:10:20.296Z,2115.00
2018-04-30T08:11:20.313Z,1856.25
2018-04-30T08:12:20.318Z,1721.25
2018-04-30T08:13:20.200Z,1760.63
2018-04-30T08:14:20.366Z,1946.25
2018-04-30T08:15:20.148Z,2413.13
2018-04-30T08:16:20.089Z,2334.38
2018-04-30T08:17:20.047Z,1794.38
2018-04-30T08:18:20.027Z,1558.13
2018-04-30T08:19:20.039Z,1535.63
2018-04-30T08:20:19.998Z,1501.88
2018-04-30T08:21:19.968Z,1423.13
2018-04-30T08:22:20.011Z,1383.75
2018-04-30T08:23:20.011Z,1383.75
2018-04-30T08:24:19.855Z,1468.13
2018-04-30T08:25:19.816Z,1659.38
2018-04-30T08:26:19.804Z,1845.00
2018-04-30T08:27:19.859Z,2053.13
2018-04-30T08:28:19.762Z,2351.25
2018-04-30T08:29:19.708Z,2227.50
2018-04-30T08:30:19.672Z,2576.25
2018-04-30T08:31:19.688Z,2143.13
2018-04-30T08:32:19.631Z,2053.13
2018-04-30T08:33:19.583Z,2160.00
2018-04-30T08:34:19.587Z,2407.50
2018-04-30T08:35:19.517Z,2424.38
2018-04-30T08:36:19.482Z,3093.75
2018-04-30T08:37:19.503Z,2851.88
2018-04-30T08:38:19.487Z,4066.88
2018-04-30T08:39:19.436Z,3448.13
2018-04-30T08:40:19.375Z,3375.00
2018-04-30T08:41:20.301Z,2975.63
2018-04-30T08:42:19.329Z,2446.88
2018-04-30T08:43:19.335Z,2227.50
2018-04-30T08:44:19.307Z,2098.13
2018-04-30T08:45:19.239Z,2030.63
2018-04-30T08:46:19.219Z,3341.25
2018-04-30T08:47:19.273Z,5703.75
2018-04-30T08:48:19.159Z,5343.75
2018-04-30T08:49:19.111Z,5191.88
2018-04-30T08:50:19.099Z,2205.00
2018-04-30T08:51:19.067Z,2086.88
2018-04-30T08:52:19.124Z,2081.25
2018-04-30T08:53:19.084Z,2098.13
2018-04-30T08:54:18.977Z,2188.13
2018-04-30T08:55:18.989Z,2756.25
2018-04-30T08:56:18.925Z,3161.25
2018-04-30T08:57:18.929Z,2660.63
2018-04-30T08:58:18.968Z,2390.63
2018-04-30T08:59:18.896Z,2255.63
2018-04-30T09:00:18.891Z,2171.25
2018-04-30T09:01:18.799Z,2289.38
2018-04-30T09:02:18.800Z,2413.13
2018-04-30T09:03:18.761Z,2728.13
2018-04-30T09:04:18.730Z,4410.00
2018-04-30T09:05:18.685Z,2306.25
2018-04-30T09:06:18.669Z,2823.75
2018-04-30T09:07:18.665Z,3043.13
2018-04-30T09:08:18.653Z,2795.63
2018-04-30T09:09:18.586Z,2070.00
2018-04-30T09:10:18.550Z,1867.50
2018-04-30T09:11:18.541Z,1923.75
2018-04-30T09:12:18.481Z,3341.25
2018-04-30T09:13:18.474Z,4095.00
2018-04-30T09:14:18.453Z,2835.00
2018-04-30T09:15:18.415Z,3504.38
2018-04-30T09:16:18.384Z,6249.38
2018-04-30T09:17:18.350Z,5788.13
2018-04-30T09:18:18.347Z,3065.63
2018-04-30T09:19:18.359Z,6508.13
2018-04-30T09:20:18.366Z,4792.50
2018-04-30T09:21:18.357Z,5011.88
2018-04-30T09:22:18.250Z,5113.13
2018-04-30T09:23:18.239Z,7014.38
2018-04-30T09:24:18.180Z,4528.13
2018-04-30T09:25:18.171Z,3993.75
2018-04-30T09:26:18.183Z,6080.63
2018-04-30T09:27:18.171Z,2610.00
2018-04-30T09:28:18.130Z,4618.13
2018-04-30T09:29:18.166Z,2469.38
2018-04-30T09:30:18.015Z,3341.25
2018-04-30T09:31:17.976Z,4539.38
2018-04-30T09:32:17.964Z,3622.50
2018-04-30T09:33:17.921Z,2261.25
2018-04-30T09:34:17.937Z,2160.00
2018-04-30T09:35:17.890Z,2143.13
2018-04-30T09:36:17.855Z,2019.38
2018-04-30T09:37:17.827Z,1951.88
2018-04-30T09:38:17.804Z,1901.25
2018-04-30T09:39:17.794Z,1777.50
2018-04-30T09:40:17.753Z,1777.50
2018-04-30T09:41:17.881Z,1760.63
2018-04-30T09:42:17.756Z,1749.38
2018-04-30T09:43:17.694Z,1794.38
2018-04-30T09:44:17.652Z,1890.00
2018-04-30T09:45:17.658Z,2036.25
2018-04-30T09:46:17.619Z,2115.00
2018-04-30T09:47:17.688Z,2171.25
2018-04-30T09:48:17.572Z,2255.63
2018-04-30T09:49:17.645Z,2244.38
2018-04-30T09:50:17.530Z,2238.75
2018-04-30T09:51:17.498Z,2233.13
2018-04-30T09:52:17.420Z,2486.25
2018-04-30T09:53:17.526Z,2761.88
2018-04-30T09:54:17.388Z,2306.25
2018-04-30T09:55:17.351Z,2109.38
2018-04-30T09:56:17.324Z,1929.38
2018-04-30T09:57:17.445Z,1749.38
2018-04-30T09:58:17.278Z,1636.88
2018-04-30T09:59:17.251Z,1760.63
2018-04-30T10:00:17.246Z,2030.63
2018-04-30T10:01:17.197Z,2075.63
2018-04-30T10:02:17.172Z,2109.38
2018-04-30T10:03:17.147Z,2182.50
2018-04-30T10:04:17.114Z,2064.38
2018-04-30T10:05:17.048Z,2188.13
2018-04-30T10:06:17.024Z,2446.88
2018-04-30T10:07:17.065Z,2761.88
2018-04-30T10:08:16.979Z,3656.25
2018-04-30T10:09:16.938Z,7357.50
2018-04-30T10:10:16.920Z,6221.25
2018-04-30T10:11:16.887Z,5203.13
2018-04-30T10:12:16.872Z,5557.50
2018-04-30T10:13:16.841Z,5670.00
2018-04-30T10:14:16.853Z,5473.13
2018-04-30T10:15:16.823Z,4753.13
2018-04-30T10:16:16.739Z,6553.13
2018-04-30T10:17:16.941Z,4230.00
2018-04-30T10:18:16.699Z,2475.00
2018-04-30T10:19:16.664Z,3695.63
2018-04-30T10:20:16.620Z,3121.88
2018-04-30T10:21:16.628Z,4848.75
2018-04-30T10:22:16.583Z,6592.50
2018-04-30T10:23:16.681Z,4426.88
2018-04-30T10:24:16.743Z,4567.50
2018-04-30T10:25:16.488Z,2356.88
2018-04-30T10:26:16.564Z,5090.63
2018-04-30T10:27:16.735Z,4651.88
2018-04-30T10:28:16.488Z,5298.75
2018-04-30T10:29:16.397Z,2317.50
2018-04-30T10:30:16.370Z,6626.25
2018-04-30T10:31:16.401Z,3853.13
2018-04-30T10:32:16.337Z,6041.25
2018-04-30T10:33:16.607Z,7014.38
2018-04-30T10:34:16.285Z,3037.50
2018-04-30T10:35:16.317Z,4623.75
2018-04-30T10:36:16.215Z,2818.13
2018-04-30T10:37:16.194Z,2874.38
2018-04-30T10:38:16.388Z,3088.13
2018-04-30T10:39:16.194Z,2851.88
2018-04-30T10:40:16.158Z,2851.88
2018-04-30T10:41:16.148Z,2790.00
2018-04-30T10:42:16.089Z,2688.75
2018-04-30T10:43:16.041Z,2806.88
2018-04-30T10:44:16.066Z,3065.63
2018-04-30T10:45:16.015Z,3245.63
2018-04-30T10:46:15.982Z,3425.63
2018-04-30T10:47:15.936Z,3695.63
2018-04-30T10:48:15.943Z,3628.13
2018-04-30T10:49:15.915Z,3391.88
2018-04-30T10:50:15.899Z,2992.50
2018-04-30T10:51:15.862Z,2891.25
2018-04-30T10:52:15.801Z,2880.00
2018-04-30T10:53:15.800Z,3178.13
2018-04-30T10:54:15.787Z,3285.00
2018-04-30T10:55:15.718Z,3909.38
2018-04-30T10:56:15.679Z,4972.50
2018-04-30T10:57:15.659Z,4539.38
2018-04-30T10:58:15.636Z,5782.50
2018-04-30T10:59:15.632Z,4410.00
2018-04-30T11:00:15.665Z,7098.75
2018-04-30T11:01:15.576Z,5551.88
2018-04-30T11:02:15.531Z,5197.50
2018-04-30T11:03:15.512Z,5236.88
2018-04-30T11:04:15.497Z,5928.75
2018-04-30T11:05:15.456Z,5872.50
2018-04-30T11:06:15.498Z,5450.63
2018-04-30T11:07:15.409Z,4657.50
2018-04-30T11:08:15.393Z,5101.88
2018-04-30T11:09:15.339Z,5501.25
2018-04-30T11:10:15.331Z,5703.75
2018-04-30T11:11:15.338Z,6232.50
2018-04-30T11:12:15.276Z,5653.13
2018-04-30T11:13:15.256Z,5799.38
2018-04-30T11:14:15.227Z,6181.88
2018-04-30T11:15:15.238Z,6097.50
2018-04-30T11:16:15.188Z,6328.13
2018-04-30T11:17:15.153Z,6030.00
2018-04-30T11:18:15.140Z,5411.25
2018-04-30T11:19:15.104Z,5698.13
2018-04-30T11:20:15.135Z,6035.63
2018-04-30T11:21:15.062Z,5658.75
2018-04-30T11:22:15.010Z,5349.38
2018-04-30T11:23:15.008Z,5580.00
2018-04-30T11:24:15.036Z,5934.38
2018-04-30T11:25:14.939Z,6035.63
2018-04-30T11:26:14.914Z,5658.75
2018-04-30T11:27:14.918Z,3926.25
2018-04-30T11:28:14.895Z,6328.13
2018-04-30T11:29:14.839Z,4162.50
2018-04-30T11:30:14.860Z,6131.25
2018-04-30T11:31:14.848Z,1749.38
2018-04-30T11:32:14.776Z,6142.50
2018-04-30T11:33:14.756Z,1811.25
2018-04-30T11:34:14.778Z,1591.88
2018-04-30T11:35:14.732Z,6165.00
2018-04-30T11:36:14.688Z,5962.50
2018-04-30T11:37:14.698Z,6035.63
2018-04-30T11:38:14.684Z,5613.75
2018-04-30T11:39:14.598Z,4927.50
2018-04-30T11:40:14.565Z,4944.38
2018-04-30T11:41:14.620Z,5585.63
2018-04-30T11:42:14.523Z,5540.63
2018-04-30T11:43:14.517Z,4764.38
2018-04-30T11:44:14.491Z,4561.88
2018-04-30T11:45:14.474Z,5023.13
2018-04-30T11:46:14.563Z,5810.63
2018-04-30T11:47:15.822Z,5551.88
2018-04-30T11:48:14.403Z,5422.50
2018-04-30T11:49:14.405Z,5619.38
2018-04-30T11:50:14.398Z,5045.63
2018-04-30T11:51:14.325Z,5349.38
2018-04-30T11:52:14.261Z,4961.25
2018-04-30T11:53:14.268Z,5293.13
2018-04-30T11:54:14.240Z,5259.38
2018-04-30T11:55:14.200Z,4995.00
2018-04-30T11:56:14.170Z,5641.88
2018-04-30T11:57:14.148Z,5810.63
2018-04-30T11:58:14.153Z,5760.00
2018-04-30T11:59:14.085Z,5821.88
2018-04-30T12:00:14.069Z,6080.63
2018-04-30T12:01:14.057Z,6558.75
2018-04-30T12:02:14.112Z,7430.63
2018-04-30T12:03:13.995Z,6210.00
2018-04-30T12:04:13.964Z,5422.50
2018-04-30T12:05:13.938Z,6406.88
2018-04-30T12:06:14.016Z,6519.38
2018-04-30T12:07:13.883Z,6260.63
2018-04-30T12:08:13.927Z,5850.00
2018-04-30T12:09:13.838Z,5574.38
2018-04-30T12:10:13.835Z,5540.63
2018-04-30T12:11:13.823Z,5467.50
2018-04-30T12:12:13.758Z,5439.38
2018-04-30T12:13:13.801Z,5293.13
2018-04-30T12:14:13.762Z,5366.25
2018-04-30T12:15:13.750Z,5625.00
2018-04-30T12:16:13.672Z,5911.88
2018-04-30T12:17:13.642Z,6305.63
2018-04-30T12:18:13.641Z,5355.00
2018-04-30T12:19:13.591Z,5304.38
2018-04-30T12:20:16.841Z,5585.63
2018-04-30T12:21:13.550Z,6513.75
2018-04-30T12:22:13.549Z,6958.13
2018-04-30T12:23:13.487Z,5934.38
2018-04-30T12:24:13.474Z,5990.63
2018-04-30T12:25:13.433Z,5743.13
2018-04-30T12:26:13.433Z,5760.00
2018-04-30T12:27:13.529Z,5535.00
2018-04-30T12:28:13.487Z,5681.25
2018-04-30T12:29:13.348Z,5051.25
2018-04-30T12:30:13.353Z,4741.88
2018-04-30T12:31:13.312Z,4843.13